X  Blizu METAR Podaci o vazduhoplovstvu     LGTS Thessaloniki Macedonia International Airport
Temperatura
25°C Temperatura
14°C Tačka Rose
51% Vlaga



Vetar
3 M/S
6 MPS
10 KM/S
5 Čvorovi



100°
I
Trenutna situacija

Delimično oblačno Delimično oblačno
Vazdušni pritisak 1009.82 (hPa) - 29.82 (inHg)
Vidljivost 6 (Milje) - 9.7 (km)
Aerodrom
Aerodromski kod. LGTS

Lokacija: Thessaloniki Macedonia International Airport
Udaljenost: 85 (km)

Metar:
LGTS 122350Z 10005KT 9999 FEW030 25/14 Q1010 NOSIG

Vreme: 13-07-2024 02:50 EEST